Time;durP1;ratioP1;P1;durP2;ratioP2;P2;SDS_P1;SDS_P2;PMS_P1;PMS_P2;Temp;Humidity;BMP_temperature;BMP_pressure;BME280_temperature;BME280_humidity;BME280_pressure;Samples;Min_cycle;Max_cycle;Signal;HPM_P1;HPM_P2
2023/05/03 00:00:40;;;;;;;1.17;0.80;;;20.50;55.30;;;;;;5047871;28;20180;-66
2023/05/03 00:03:07;;;;;;;0.77;0.60;;;20.50;54.60;;;;;;5045648;28;20188;-66
2023/05/03 00:05:34;;;;;;;1.83;0.90;;;20.50;55.30;;;;;;5049223;28;20184;-67
2023/05/03 00:08:02;;;;;;;2.73;0.90;;;20.60;55.00;;;;;;5048081;28;20565;-66
2023/05/03 00:10:30;;;;;;;2.00;1.00;;;20.80;54.30;;;;;;5049739;28;20228;-66
2023/05/03 00:12:57;;;;;;;2.17;1.10;;;20.90;54.60;;;;;;5047934;28;20676;-66
2023/05/03 00:15:26;;;;;;;3.20;0.77;;;21.10;54.40;;;;;;5051429;28;20211;-67
2023/05/03 00:17:54;;;;;;;3.50;0.90;;;21.10;53.80;;;;;;5050887;28;20200;-66
2023/05/03 00:20:22;;;;;;;1.03;0.70;;;21.20;54.40;;;;;;5048717;28;20199;-65
2023/05/03 00:22:49;;;;;;;1.83;1.00;;;21.20;53.80;;;;;;5071191;28;20235;-65
2023/05/03 00:25:16;;;;;;;2.60;0.70;;;21.20;54.10;;;;;;5049257;28;20204;-63
2023/05/03 00:27:44;;;;;;;1.43;0.70;;;21.30;53.60;;;;;;5042708;28;20222;-65
2023/05/03 00:30:11;;;;;;;1.37;0.80;;;21.40;53.80;;;;;;5047384;28;20275;-65
2023/05/03 00:32:39;;;;;;;5.40;0.90;;;21.50;53.60;;;;;;5049109;28;20183;-68
2023/05/03 00:35:07;;;;;;;3.33;0.87;;;21.50;51.30;;;;;;5049039;28;20180;-65
2023/05/03 00:37:35;;;;;;;4.87;0.90;;;21.70;52.00;;;;;;5045261;28;20179;-65
2023/05/03 00:40:03;;;;;;;0.67;0.60;;;21.60;48.90;;;;;;5041191;28;20180;-64
2023/05/03 00:42:33;;;;;;;1.50;0.70;;;21.60;49.20;;;;;;5049607;28;20184;-64
2023/05/03 00:45:03;;;;;;;2.07;0.70;;;21.70;49.50;;;;;;5052219;28;20274;-65
2023/05/03 00:47:32;;;;;;;2.07;0.90;;;21.70;49.40;;;;;;5050524;28;20180;-65
2023/05/03 00:50:00;;;;;;;3.93;0.80;;;21.70;50.20;;;;;;5047084;28;20635;-65
2023/05/03 00:52:28;;;;;;;2.30;0.77;;;21.80;49.40;;;;;;5046440;28;20184;-65
2023/05/03 00:54:57;;;;;;;2.70;0.90;;;21.80;49.20;;;;;;5049210;28;20266;-66
2023/05/03 00:57:26;;;;;;;4.60;0.93;;;21.90;49.50;;;;;;5049943;28;20198;-65
2023/05/03 00:59:54;;;;;;;1.47;0.70;;;21.90;48.40;;;;;;5050725;28;20580;-64
2023/05/03 01:02:23;;;;;;;4.60;0.70;;;22.10;47.60;;;;;;5048855;28;20563;-65
2023/05/03 01:04:52;;;;;;;2.90;0.90;;;22.10;46.70;;;;;;5046419;28;20196;-65
2023/05/03 01:07:40;;;;;;;2.10;0.83;;;22.20;47.00;;;;;;5050232;28;20175;-67
2023/05/03 01:10:22;;;;;;;0.70;0.60;;;22.50;47.80;;;;;;5049045;28;20561;-64
2023/05/03 01:13:14;;;;;;;0.70;0.70;;;22.50;46.50;;;;;;5046970;28;20220;-67
2023/05/03 01:16:07;;;;;;;3.87;0.90;;;22.70;44.70;;;;;;5050586;28;20427;-66
2023/05/03 01:18:45;;;;;;;3.27;0.80;;;22.80;42.00;;;;;;5049130;28;20214;-67
2023/05/03 01:21:16;;;;;;;5.27;0.90;;;22.90;40.10;;;;;;5052334;28;20178;-68
2023/05/03 01:23:46;;;;;;;2.13;1.10;;;23.00;40.50;;;;;;5046327;28;20183;-68
2023/05/03 01:26:26;;;;;;;5.73;1.13;;;23.30;40.20;;;;;;5051879;28;20192;-68
2023/05/03 01:28:54;;;;;;;1.00;0.80;;;23.20;39.70;;;;;;5075492;28;20282;-67
2023/05/03 01:31:48;;;;;;;3.67;1.03;;;23.20;39.70;;;;;;5048850;28;20191;-69
2023/05/03 01:34:43;;;;;;;2.60;0.80;;;23.30;39.50;;;;;;5048728;28;20259;-68
2023/05/03 01:37:13;;;;;;;6.27;0.97;;;23.50;38.30;;;;;;5044388;28;20665;-69
2023/05/03 01:39:55;;;;;;;3.73;0.80;;;23.40;37.80;;;;;;5043876;28;20261;-69
2023/05/03 01:42:25;;;;;;;6.83;0.90;;;23.40;37.80;;;;;;5048663;28;20256;-63
2023/05/03 01:44:54;;;;;;;2.87;0.87;;;23.50;38.40;;;;;;5056066;28;20184;-67
2023/05/03 01:47:22;;;;;;;1.83;0.73;;;23.50;37.60;;;;;;5048576;28;20264;-65
2023/05/03 01:49:49;;;;;;;1.60;0.77;;;23.70;37.30;;;;;;5048472;28;20284;-68
2023/05/03 01:52:16;;;;;;;4.57;0.90;;;23.60;36.70;;;;;;5043837;28;20176;-68
2023/05/03 01:54:44;;;;;;;2.83;0.90;;;23.60;37.10;;;;;;5044713;28;20344;-70
2023/05/03 01:57:11;;;;;;;2.43;0.90;;;23.70;37.00;;;;;;5048938;28;20211;-70
2023/05/03 01:59:39;;;;;;;3.13;0.90;;;23.70;35.90;;;;;;5047629;28;20314;-68
2023/05/03 02:02:06;;;;;;;5.30;0.90;;;23.50;35.70;;;;;;5048063;28;20615;-69
2023/05/03 02:04:33;;;;;;;6.73;0.87;;;23.70;35.90;;;;;;5042007;28;20301;-66
2023/05/03 02:07:00;;;;;;;7.40;0.93;;;23.80;35.40;;;;;;5049511;28;20180;-67
2023/05/03 02:09:28;;;;;;;4.03;1.10;;;23.70;35.00;;;;;;5050429;28;20180;-68
2023/05/03 02:11:55;;;;;;;2.30;1.03;;;23.80;36.00;;;;;;5049192;28;20541;-68
2023/05/03 02:14:22;;;;;;;3.43;0.70;;;24.10;36.00;;;;;;5048482;28;20585;-67
2023/05/03 02:16:50;;;;;;;2.30;0.80;;;24.20;35.80;;;;;;5049848;28;20183;-69
2023/05/03 02:19:17;;;;;;;3.67;0.70;;;24.10;35.60;;;;;;5044997;28;20242;-66
2023/05/03 02:21:45;;;;;;;2.27;0.83;;;24.30;34.70;;;;;;5048482;28;20187;-68
2023/05/03 02:24:12;;;;;;;7.00;0.83;;;24.20;33.80;;;;;;5046430;28;20176;-64
2023/05/03 02:26:40;;;;;;;4.33;0.83;;;24.20;33.40;;;;;;5044441;28;21185;-68
2023/05/03 02:29:07;;;;;;;3.33;0.80;;;24.30;33.10;;;;;;5047504;28;20172;-67
2023/05/03 02:31:34;;;;;;;2.00;1.10;;;24.30;32.60;;;;;;5050231;28;20188;-65
2023/05/03 02:34:02;;;;;;;2.53;0.63;;;24.40;31.70;;;;;;5045097;28;20237;-69
2023/05/03 02:36:29;;;;;;;2.90;0.90;;;24.10;32.30;;;;;;5049691;28;20238;-68
2023/05/03 02:38:57;;;;;;;2.40;0.70;;;24.20;32.50;;;;;;5047717;28;21454;-66
2023/05/03 02:41:26;;;;;;;4.83;0.90;;;24.30;32.70;;;;;;5049096;28;20184;-69
2023/05/03 02:43:53;;;;;;;5.20;1.10;;;24.40;32.10;;;;;;5047860;28;20624;-67
2023/05/03 02:46:20;;;;;;;2.70;0.90;;;24.70;31.70;;;;;;5047018;28;20231;-66
2023/05/03 02:48:47;;;;;;;2.80;1.30;;;24.30;31.80;;;;;;5049220;28;20172;-62
2023/05/03 02:51:15;;;;;;;4.27;0.80;;;24.30;32.50;;;;;;5050749;28;20176;-64
2023/05/03 02:53:42;;;;;;;6.00;1.30;;;24.80;32.40;;;;;;5047168;28;20192;-66
2023/05/03 02:56:10;;;;;;;3.17;0.80;;;24.70;30.60;;;;;;5047436;28;20200;-66
2023/05/03 02:58:37;;;;;;;1.17;0.70;;;24.70;30.50;;;;;;5047126;28;20298;-67
2023/05/03 03:01:04;;;;;;;3.07;0.90;;;24.90;30.90;;;;;;5050326;28;20551;-67
2023/05/03 03:03:32;;;;;;;1.50;0.80;;;24.70;31.90;;;;;;5050224;28;20191;-70
2023/05/03 03:06:00;;;;;;;3.83;0.80;;;24.80;30.90;;;;;;5049798;28;20188;-67
2023/05/03 03:08:27;;;;;;;3.27;0.77;;;24.80;29.20;;;;;;5051538;28;20183;-67
2023/05/03 03:10:54;;;;;;;1.60;0.80;;;24.50;30.00;;;;;;5051453;28;20231;-68
2023/05/03 03:13:22;;;;;;;3.27;0.80;;;24.70;31.00;;;;;;5052450;28;20220;-68
2023/05/03 03:15:49;;;;;;;3.37;0.80;;;24.70;31.20;;;;;;5053038;28;20176;-68
2023/05/03 03:18:16;;;;;;;2.00;0.70;;;25.00;29.50;;;;;;5051447;28;20261;-67
2023/05/03 03:20:44;;;;;;;2.60;0.77;;;24.90;29.40;;;;;;5049767;28;20650;-65
2023/05/03 03:23:11;;;;;;;2.00;0.83;;;24.80;28.80;;;;;;5047357;28;20191;-64
2023/05/03 03:25:39;;;;;;;4.97;0.70;;;24.90;29.90;;;;;;5049972;28;20190;-68
2023/05/03 03:28:06;;;;;;;2.70;0.80;;;25.10;29.40;;;;;;5050223;28;20218;-68
2023/05/03 03:30:34;;;;;;;3.80;1.20;;;25.50;29.40;;;;;;5051592;28;20194;-66
2023/05/03 03:33:01;;;;;;;4.97;0.83;;;25.30;29.20;;;;;;5051346;28;20305;-68
2023/05/03 03:35:32;;;;;;;3.40;0.90;;;25.40;28.90;;;;;;5051782;28;20265;-68
2023/05/03 03:38:00;;;;;;;1.73;0.70;;;25.20;27.60;;;;;;5045137;28;20224;-66
2023/05/03 03:40:27;;;;;;;3.30;0.90;;;25.00;28.10;;;;;;5049701;28;20575;-67
2023/05/03 03:42:54;;;;;;;2.80;0.60;;;25.10;27.80;;;;;;5050911;28;20188;-68
2023/05/03 03:45:22;;;;;;;1.13;0.70;;;25.00;27.50;;;;;;5050317;28;20662;-70
2023/05/03 03:47:49;;;;;;;3.70;1.03;;;25.30;27.70;;;;;;5047550;28;20188;-68
2023/05/03 03:50:18;;;;;;;2.60;0.87;;;25.30;27.20;;;;;;5053755;28;20207;-69
2023/05/03 03:52:45;;;;;;;2.77;0.70;;;25.30;27.10;;;;;;5052637;28;20202;-67
2023/05/03 03:55:12;;;;;;;2.23;0.63;;;25.40;27.30;;;;;;5052902;28;20538;-68
2023/05/03 03:57:40;;;;;;;0.87;0.50;;;25.30;26.30;;;;;;5052175;28;20650;-69
2023/05/03 04:00:09;;;;;;;2.07;0.67;;;25.40;27.00;;;;;;5052819;28;20192;-68
2023/05/03 04:02:36;;;;;;;2.30;0.80;;;25.70;26.60;;;;;;5051518;28;20188;-67
2023/05/03 04:05:05;;;;;;;2.43;0.70;;;25.60;26.80;;;;;;5052475;28;20188;-68
2023/05/03 04:07:32;;;;;;;5.50;0.80;;;25.50;26.50;;;;;;5052398;28;20697;-64
2023/05/03 04:10:00;;;;;;;3.17;0.50;;;25.80;26.60;;;;;;5051674;28;20227;-67
2023/05/03 04:12:27;;;;;;;1.67;0.70;;;26.00;26.50;;;;;;5052690;28;20194;-65
2023/05/03 04:14:56;;;;;;;2.10;0.60;;;26.00;26.90;;;;;;5051955;28;20199;-66
2023/05/03 04:17:23;;;;;;;1.00;0.40;;;26.30;26.60;;;;;;5051836;28;20188;-67
2023/05/03 04:19:51;;;;;;;4.57;0.80;;;26.60;26.20;;;;;;5051218;28;20631;-67
2023/05/03 04:22:18;;;;;;;6.17;1.20;;;26.40;25.20;;;;;;5055587;28;20233;-66
2023/05/03 04:24:46;;;;;;;2.40;0.90;;;26.40;25.70;;;;;;5052104;28;20268;-66
2023/05/03 04:27:14;;;;;;;9.43;1.00;;;26.40;25.90;;;;;;5050709;28;20179;-69
2023/05/03 04:29:41;;;;;;;1.50;0.90;;;26.40;25.50;;;;;;5050090;28;20242;-65
2023/05/03 04:32:08;;;;;;;2.27;0.70;;;26.20;25.00;;;;;;5048888;28;20202;-68
2023/05/03 04:34:36;;;;;;;2.40;0.70;;;26.50;25.40;;;;;;5050973;28;20184;-69
2023/05/03 04:37:03;;;;;;;1.83;0.60;;;26.40;24.80;;;;;;5052550;28;20191;-66
2023/05/03 04:39:31;;;;;;;2.23;0.70;;;26.00;24.90;;;;;;5049899;28;20215;-68
2023/05/03 04:41:58;;;;;;;7.97;0.70;;;26.10;25.80;;;;;;5052663;28;20179;-67
2023/05/03 04:44:26;;;;;;;3.13;0.70;;;26.50;25.30;;;;;;5050359;28;20261;-70
2023/05/03 04:46:53;;;;;;;3.37;0.80;;;26.80;25.00;;;;;;5047558;28;20192;-68
2023/05/03 04:49:21;;;;;;;2.00;0.67;;;26.70;24.20;;;;;;5045843;28;20188;-66
2023/05/03 04:51:48;;;;;;;1.50;0.60;;;26.30;25.20;;;;;;5051428;28;20187;-65
2023/05/03 04:54:16;;;;;;;3.27;0.70;;;26.40;25.00;;;;;;5051346;28;20199;-65
2023/05/03 04:56:43;;;;;;;2.17;0.50;;;26.50;24.60;;;;;;5051512;28;20271;-68
2023/05/03 04:59:11;;;;;;;1.70;0.60;;;26.70;24.60;;;;;;5050449;28;20769;-63
2023/05/03 05:01:38;;;;;;;2.97;0.53;;;26.80;24.30;;;;;;5049593;28;20176;-66
2023/05/03 05:04:06;;;;;;;2.57;0.60;;;26.80;24.60;;;;;;5050056;28;20192;-65
2023/05/03 05:06:33;;;;;;;2.13;0.60;;;26.80;25.00;;;;;;5050511;28;20472;-66
2023/05/03 05:09:00;;;;;;;1.70;0.70;;;26.60;24.80;;;;;;5046501;28;20246;-67
2023/05/03 05:11:28;;;;;;;1.53;0.43;;;26.50;25.10;;;;;;5051403;28;20231;-64
2023/05/03 05:13:55;;;;;;;1.80;0.60;;;26.40;25.20;;;;;;5050134;28;20290;-66
2023/05/03 05:16:22;;;;;;;1.50;0.80;;;26.60;24.70;;;;;;5049746;28;20180;-64
2023/05/03 05:18:50;;;;;;;2.67;0.60;;;26.60;25.10;;;;;;5045008;28;20615;-66
2023/05/03 05:21:17;;;;;;;2.00;0.60;;;26.20;25.60;;;;;;5050902;28;20306;-64
2023/05/03 05:23:44;;;;;;;4.13;0.83;;;26.00;26.20;;;;;;5050735;28;20544;-65
2023/05/03 05:26:11;;;;;;;1.53;0.70;;;26.00;26.20;;;;;;5051163;28;20188;-67
2023/05/03 05:28:39;;;;;;;4.70;0.93;;;26.20;25.90;;;;;;5049472;28;20191;-65
2023/05/03 05:31:06;;;;;;;1.90;0.60;;;26.30;26.30;;;;;;5051038;28;20264;-63
2023/05/03 05:33:33;;;;;;;1.27;0.70;;;26.40;26.30;;;;;;5045423;28;20187;-65
2023/05/03 05:36:01;;;;;;;1.07;0.50;;;26.30;26.80;;;;;;5050656;28;20249;-64
2023/05/03 05:38:28;;;;;;;3.17;0.90;;;26.20;26.40;;;;;;5047677;28;20587;-67
2023/05/03 05:40:55;;;;;;;2.87;0.97;;;25.90;27.40;;;;;;5045949;28;20240;-65
2023/05/03 05:43:23;;;;;;;1.80;0.87;;;26.30;27.00;;;;;;5048003;28;20176;-65
2023/05/03 05:45:50;;;;;;;2.23;0.80;;;25.70;28.10;;;;;;5047703;28;20662;-66
2023/05/03 05:48:17;;;;;;;5.57;0.87;;;25.70;28.40;;;;;;5051117;28;20653;-64
2023/05/03 05:50:45;;;;;;;3.80;0.80;;;25.70;28.50;;;;;;5049347;28;20585;-64
2023/05/03 05:53:12;;;;;;;3.20;0.80;;;25.90;28.20;;;;;;5046726;28;20188;-66
2023/05/03 05:55:39;;;;;;;1.67;0.70;;;25.20;29.00;;;;;;5048962;28;21068;-67
2023/05/03 05:58:08;;;;;;;6.53;0.97;;;25.10;29.10;;;;;;5049029;28;20216;-67
2023/05/03 06:00:35;;;;;;;4.07;0.67;;;25.50;28.90;;;;;;5046753;28;20192;-69
2023/05/03 06:03:04;;;;;;;3.90;1.20;;;25.30;29.20;;;;;;5050152;28;20630;-64
2023/05/03 06:05:31;;;;;;;2.20;0.80;;;25.30;29.20;;;;;;5048596;28;20519;-65
2023/05/03 06:07:59;;;;;;;3.53;0.80;;;24.70;30.20;;;;;;5049937;28;20479;-64
2023/05/03 06:10:26;;;;;;;4.00;0.77;;;24.00;31.20;;;;;;5046850;28;20223;-64
2023/05/03 06:12:53;;;;;;;3.20;0.70;;;23.70;32.20;;;;;;5049519;28;20588;-66
2023/05/03 06:15:21;;;;;;;2.40;0.70;;;23.60;32.50;;;;;;5049564;28;20182;-64
2023/05/03 06:17:48;;;;;;;2.27;0.90;;;23.40;32.70;;;;;;5048106;28;20183;-62
2023/05/03 06:20:17;;;;;;;4.80;0.80;;;23.00;32.80;;;;;;5039815;28;20590;-65
2023/05/03 06:22:44;;;;;;;8.87;1.30;;;22.80;33.60;;;;;;5043375;28;20191;-67
2023/05/03 06:25:13;;;;;;;2.40;0.70;;;22.70;34.00;;;;;;5047725;28;20195;-65
2023/05/03 06:27:40;;;;;;;1.07;0.70;;;22.40;33.90;;;;;;5048815;28;20286;-67
2023/05/03 06:30:09;;;;;;;2.63;0.90;;;22.40;34.30;;;;;;5047625;28;20212;-66
2023/05/03 06:32:39;;;;;;;1.03;0.80;;;22.30;34.40;;;;;;5046502;28;20188;-67
2023/05/03 06:35:08;;;;;;;5.07;1.23;;;22.20;34.90;;;;;;5045320;28;20199;-66
2023/05/03 06:37:35;;;;;;;3.67;0.80;;;22.10;34.90;;;;;;5048944;28;20258;-66
2023/05/03 06:40:04;;;;;;;1.23;0.80;;;22.00;35.10;;;;;;5049206;28;20207;-66
2023/05/03 06:42:31;;;;;;;2.67;0.77;;;22.00;35.40;;;;;;5052903;28;20195;-66
2023/05/03 06:44:58;;;;;;;2.40;1.10;;;21.90;35.50;;;;;;5053594;28;20184;-68
2023/05/03 06:47:26;;;;;;;2.00;1.00;;;21.80;35.70;;;;;;5049240;28;20547;-65
2023/05/03 06:49:53;;;;;;;3.73;0.90;;;21.80;35.90;;;;;;5050489;28;20186;-68
2023/05/03 06:52:20;;;;;;;2.43;0.70;;;21.70;36.30;;;;;;5053292;28;20203;-67
2023/05/03 06:54:48;;;;;;;4.60;0.90;;;21.70;36.50;;;;;;5051623;28;20175;-67
2023/05/03 06:57:15;;;;;;;4.33;0.87;;;21.70;36.40;;;;;;5053712;28;20270;-67
2023/05/03 06:59:42;;;;;;;1.40;0.80;;;21.60;36.80;;;;;;5053538;28;20220;-66
2023/05/03 07:02:09;;;;;;;6.17;0.90;;;21.50;37.00;;;;;;5052901;28;20202;-65
2023/05/03 07:04:37;;;;;;;3.07;1.27;;;21.40;37.30;;;;;;5052804;28;20199;-67
2023/05/03 07:07:05;;;;;;;3.00;0.90;;;21.30;37.60;;;;;;5053717;28;20188;-65
2023/05/03 07:09:32;;;;;;;4.10;0.90;;;21.30;37.70;;;;;;5052600;28;20557;-65
2023/05/03 07:12:00;;;;;;;5.40;0.93;;;21.30;37.80;;;;;;5052317;28;20188;-66
2023/05/03 07:14:27;;;;;;;3.73;0.70;;;21.30;37.80;;;;;;5053897;28;20191;-63
2023/05/03 07:16:55;;;;;;;2.27;0.77;;;21.20;38.20;;;;;;5053174;28;20200;-63
2023/05/03 07:19:22;;;;;;;4.63;1.20;;;21.10;38.40;;;;;;5047306;28;20218;-65
2023/05/03 07:21:50;;;;;;;1.67;0.90;;;21.10;38.60;;;;;;5046767;28;20192;-67
2023/05/03 07:24:18;;;;;;;2.70;0.60;;;21.00;38.80;;;;;;5048542;28;20229;-66
2023/05/03 07:26:46;;;;;;;3.90;1.20;;;20.90;39.00;;;;;;5051411;28;20180;-66
2023/05/03 07:29:13;;;;;;;2.07;0.80;;;21.00;38.90;;;;;;5049055;28;20207;-65
2023/05/03 07:31:40;;;;;;;2.70;0.80;;;20.90;38.90;;;;;;5050233;28;20184;-65
2023/05/03 07:34:07;;;;;;;2.57;1.13;;;20.90;38.80;;;;;;5053843;28;20183;-67
2023/05/03 07:36:35;;;;;;;2.60;1.20;;;20.90;38.90;;;;;;5046549;28;20587;-66
2023/05/03 07:39:03;;;;;;;2.87;1.00;;;20.80;39.20;;;;;;5041504;28;20236;-66
2023/05/03 07:41:31;;;;;;;4.27;1.27;;;20.80;39.50;;;;;;5046852;28;20183;-65
2023/05/03 07:43:58;;;;;;;3.57;1.63;;;20.80;39.80;;;;;;5052749;28;20196;-66
2023/05/03 07:46:25;;;;;;;4.03;1.20;;;20.80;39.70;;;;;;5050565;28;20301;-63
2023/05/03 07:48:53;;;;;;;3.93;1.30;;;20.70;39.60;;;;;;5049937;28;20196;-65
2023/05/03 07:51:20;;;;;;;2.93;1.50;;;20.70;39.60;;;;;;5045977;28;20175;-66
2023/05/03 07:53:48;;;;;;;5.93;2.00;;;20.70;39.60;;;;;;5049236;28;20287;-66
2023/05/03 07:56:15;;;;;;;3.33;2.30;;;20.70;40.20;;;;;;5047138;28;20187;-66
2023/05/03 07:58:42;;;;;;;2.53;1.20;;;20.60;40.10;;;;;;5049821;28;20219;-65
2023/05/03 08:01:11;;;;;;;1.73;0.97;;;20.70;39.60;;;;;;5050181;28;20196;-64
2023/05/03 08:03:39;;;;;;;2.50;1.30;;;20.80;39.40;;;;;;5047230;28;20223;-66
2023/05/03 08:06:07;;;;;;;4.10;1.00;;;20.80;39.40;;;;;;5049897;28;20183;-66
2023/05/03 08:08:35;;;;;;;1.40;1.00;;;20.80;39.60;;;;;;5047815;28;20181;-66
2023/05/03 08:11:02;;;;;;;1.77;1.27;;;20.80;39.90;;;;;;5050902;28;20240;-67
2023/05/03 08:13:29;;;;;;;4.10;1.20;;;20.80;39.80;;;;;;5050980;28;20193;-67
2023/05/03 08:15:57;;;;;;;5.87;1.00;;;20.80;40.10;;;;;;5046868;28;20279;-66
2023/05/03 08:18:24;;;;;;;1.37;0.90;;;20.80;40.10;;;;;;5049555;28;20208;-65
2023/05/03 08:20:52;;;;;;;1.97;0.90;;;20.80;40.20;;;;;;5051938;28;20195;-67
2023/05/03 08:23:20;;;;;;;4.20;2.13;;;20.80;40.40;;;;;;5045682;28;20181;-65
2023/05/03 08:25:48;;;;;;;4.80;2.20;;;20.80;40.40;;;;;;5050971;28;20321;-67
2023/05/03 08:28:16;;;;;;;2.47;1.33;;;20.70;40.70;;;;;;5051139;28;20246;-65
2023/05/03 08:30:43;;;;;;;6.83;1.30;;;20.70;40.70;;;;;;5046453;28;20545;-64
2023/05/03 08:33:11;;;;;;;4.10;1.10;;;20.70;40.90;;;;;;5049845;28;20176;-67
2023/05/03 08:35:39;;;;;;;2.77;1.17;;;20.70;41.00;;;;;;5047826;28;20188;-63
2023/05/03 08:38:06;;;;;;;2.03;1.00;;;20.60;41.00;;;;;;5050713;28;20217;-66
2023/05/03 08:40:36;;;;;;;2.40;1.20;;;20.60;41.30;;;;;;5050948;28;20187;-65
2023/05/03 08:43:11;;;;;;;3.40;1.40;;;20.50;41.30;;;;;;5049508;28;20183;-66
2023/05/03 08:45:38;;;;;;;1.77;1.17;;;20.50;41.30;;;;;;5049429;28;20270;-65
2023/05/03 08:48:06;;;;;;;2.40;1.10;;;20.50;41.50;;;;;;5049882;28;20227;-65
2023/05/03 08:50:40;;;;;;;2.20;1.43;;;20.50;41.90;;;;;;5050876;28;20188;-64
2023/05/03 08:53:09;;;;;;;3.43;1.30;;;20.50;42.10;;;;;;5049880;28;20207;-64
2023/05/03 08:55:38;;;;;;;4.90;1.20;;;20.40;42.00;;;;;;5049436;28;20188;-65
2023/05/03 08:58:11;;;;;;;2.87;1.27;;;20.40;41.90;;;;;;5051401;28;20208;-65
2023/05/03 09:00:40;;;;;;;4.13;1.40;;;20.40;42.60;;;;;;5048791;28;20198;-62
2023/05/03 09:03:07;;;;;;;5.90;1.40;;;20.30;43.10;;;;;;5051459;28;20552;-63
2023/05/03 09:05:39;;;;;;;3.50;1.10;;;20.30;43.80;;;;;;5050082;28;20195;-64
2023/05/03 09:08:12;;;;;;;3.90;1.37;;;20.10;44.50;;;;;;5044499;28;20674;-63
2023/05/03 09:10:41;;;;;;;2.43;1.30;;;20.00;45.20;;;;;;5046386;28;20589;-65
2023/05/03 09:13:10;;;;;;;3.87;1.50;;;19.90;45.80;;;;;;5051253;28;20271;-65
2023/05/03 09:15:38;;;;;;;5.03;1.27;;;19.80;46.10;;;;;;5048466;28;20673;-66
2023/05/03 09:18:14;;;;;;;3.40;1.37;;;19.80;46.50;;;;;;5051012;28;20208;-67
2023/05/03 09:20:50;;;;;;;4.33;1.27;;;19.70;46.90;;;;;;5048984;28;20538;-67
2023/05/03 09:23:29;;;;;;;6.17;1.37;;;19.60;47.30;;;;;;5048450;28;20180;-64
2023/05/03 09:25:58;;;;;;;1.93;1.17;;;19.50;47.80;;;;;;5047021;28;20207;-66
2023/05/03 09:28:26;;;;;;;3.77;1.00;;;19.40;48.40;;;;;;5049794;28;20277;-66
2023/05/03 09:31:06;;;;;;;2.27;1.07;;;19.30;48.60;;;;;;5047732;28;20263;-65
2023/05/03 09:33:33;;;;;;;4.43;1.10;;;19.30;49.00;;;;;;5049021;28;20278;-63
2023/05/03 09:36:02;;;;;;;1.93;0.80;;;19.20;49.10;;;;;;5046608;28;20188;-64
2023/05/03 09:38:32;;;;;;;3.40;1.10;;;19.10;49.30;;;;;;5044667;28;20538;-65
2023/05/03 09:41:06;;;;;;;3.13;0.90;;;19.00;49.80;;;;;;5049870;28;20642;-64
2023/05/03 09:43:47;;;;;;;6.40;1.33;;;18.90;50.10;;;;;;5046128;28;20199;-63
2023/05/03 09:46:14;;;;;;;3.17;0.97;;;18.80;49.90;;;;;;5048337;28;20188;-63
2023/05/03 09:48:42;;;;;;;4.93;1.17;;;18.80;49.80;;;;;;5045366;28;20235;-67
2023/05/03 09:51:11;;;;;;;2.10;1.10;;;18.70;49.80;;;;;;5045350;28;20229;-65
2023/05/03 09:53:40;;;;;;;4.17;1.30;;;18.60;49.70;;;;;;5047717;28;20198;-66
2023/05/03 09:56:13;;;;;;;4.50;1.20;;;18.60;49.80;;;;;;5041816;28;20195;-66
2023/05/03 09:58:42;;;;;;;5.63;1.40;;;18.50;49.90;;;;;;5047171;28;20216;-67
2023/05/03 10:01:10;;;;;;;7.47;1.63;;;18.50;50.40;;;;;;5046788;28;20521;-67
2023/05/03 10:03:53;;;;;;;2.03;1.20;;;18.40;49.40;;;;;;5047995;28;20274;-64
2023/05/03 10:06:33;;;;;;;2.27;1.23;;;18.40;48.90;;;;;;5046277;28;20253;-62
2023/05/03 10:09:13;;;;;;;3.60;1.23;;;18.30;48.40;;;;;;5048855;28;20185;-65
2023/05/03 10:11:47;;;;;;;3.27;1.30;;;18.40;47.70;;;;;;5050351;28;20234;-65
2023/05/03 10:14:15;;;;;;;2.47;1.20;;;18.30;48.20;;;;;;5050044;28;20267;-62
2023/05/03 10:16:48;;;;;;;2.90;1.10;;;18.20;48.20;;;;;;5049848;28;20241;-64
2023/05/03 10:19:33;;;;;;;7.00;1.50;;;18.30;48.30;;;;;;5072615;28;20208;-64
2023/05/03 10:22:06;;;;;;;2.50;1.50;;;18.20;48.60;;;;;;5051735;28;20185;-63
2023/05/03 10:24:37;;;;;;;2.33;1.20;;;18.20;48.80;;;;;;5051611;28;20187;-61
2023/05/03 10:27:11;;;;;;;7.83;2.13;;;18.00;48.70;;;;;;5050391;28;20289;-65
2023/05/03 10:29:47;;;;;;;5.17;1.60;;;18.00;49.00;;;;;;5049941;28;20275;-65
2023/05/03 10:32:41;;;;;;;10.73;2.00;;;18.00;48.40;;;;;;5050938;28;20642;-63
2023/05/03 10:35:16;;;;;;;4.67;1.80;;;17.90;48.40;;;;;;5050074;28;20203;-62
2023/05/03 10:37:45;;;;;;;5.93;1.50;;;17.80;48.60;;;;;;5052397;28;20678;-66
2023/05/03 10:40:15;;;;;;;9.20;2.03;;;17.80;49.00;;;;;;5052880;28;20242;-63
2023/05/03 10:42:51;;;;;;;3.77;1.37;;;17.70;48.60;;;;;;5051231;28;20188;-63
2023/05/03 10:45:30;;;;;;;7.83;2.20;;;17.70;48.70;;;;;;5054164;28;20187;-66
2023/05/03 10:48:27;;;;;;;5.83;1.63;;;17.60;48.70;;;;;;5051856;28;20183;-65
2023/05/03 10:50:56;;;;;;;4.17;1.53;;;17.50;48.20;;;;;;5044564;28;20230;-63
2023/05/03 10:53:35;;;;;;;6.33;1.60;;;17.50;48.20;;;;;;5052146;28;20215;-64
2023/05/03 10:56:11;;;;;;;8.10;2.10;;;17.50;48.20;;;;;;5051021;28;20215;-63
2023/05/03 10:58:48;;;;;;;7.17;2.47;;;17.40;48.20;;;;;;5048265;28;20267;-63
2023/05/03 11:01:18;;;;;;;7.10;1.97;;;17.40;47.80;;;;;;5048684;28;20245;-64
2023/05/03 11:04:07;;;;;;;5.97;2.00;;;17.30;47.70;;;;;;5049361;28;20744;-62
2023/05/03 11:06:36;;;;;;;5.70;1.97;;;17.30;47.80;;;;;;5049724;28;20187;-63
2023/05/03 11:09:06;;;;;;;7.50;2.00;;;17.30;47.30;;;;;;5052704;28;20669;-62
2023/05/03 11:11:35;;;;;;;9.07;2.80;;;17.30;47.30;;;;;;5050870;28;20348;-64
2023/05/03 11:14:02;;;;;;;7.30;2.23;;;17.30;47.20;;;;;;5046098;28;20218;-64
2023/05/03 11:16:30;;;;;;;8.53;1.97;;;17.30;46.30;;;;;;5046598;28;20263;-62
2023/05/03 11:18:59;;;;;;;8.87;2.30;;;17.30;46.20;;;;;;5048893;28;20223;-63
2023/05/03 11:21:26;;;;;;;7.73;2.10;;;17.30;46.50;;;;;;5048770;28;20176;-63
2023/05/03 11:23:53;;;;;;;6.10;1.87;;;17.30;46.50;;;;;;5048825;28;20191;-62
2023/05/03 11:26:24;;;;;;;7.53;1.73;;;17.20;46.50;;;;;;5051504;28;20639;-63
2023/05/03 11:28:52;;;;;;;9.57;2.13;;;17.20;46.60;;;;;;5051178;28;20206;-66
2023/05/03 11:31:21;;;;;;;9.33;2.47;;;17.20;46.10;;;;;;5051249;28;20274;-65
2023/05/03 11:33:50;;;;;;;5.90;2.07;;;17.20;46.30;;;;;;5049239;28;20200;-62
2023/05/03 11:36:17;;;;;;;5.37;1.90;;;17.20;46.30;;;;;;5050088;28;20297;-66
2023/05/03 11:38:45;;;;;;;10.67;2.80;;;17.10;46.10;;;;;;5044962;28;20221;-65
2023/05/03 11:41:18;;;;;;;8.77;2.90;;;17.10;46.00;;;;;;5050929;28;20283;-69
2023/05/03 11:43:48;;;;;;;8.00;2.43;;;17.10;45.90;;;;;;5049889;28;20249;-68
2023/05/03 11:46:27;;;;;;;6.53;2.33;;;17.10;45.90;;;;;;5050469;28;20250;-65
2023/05/03 11:48:54;;;;;;;10.63;2.40;;;17.00;45.80;;;;;;5050993;28;20610;-66
2023/05/03 11:51:26;;;;;;;10.17;3.07;;;17.00;45.70;;;;;;5050258;28;20183;-66
2023/05/03 11:53:55;;;;;;;10.93;2.73;;;17.00;46.10;;;;;;5051352;28;20218;-68
2023/05/03 11:56:23;;;;;;;12.13;2.83;;;17.00;45.70;;;;;;5051445;28;20201;-67
2023/05/03 11:58:55;;;;;;;9.60;2.70;;;17.00;45.40;;;;;;5047599;28;20600;-65
2023/05/03 12:01:25;;;;;;;9.07;2.70;;;17.00;45.40;;;;;;5047301;28;20682;-66
2023/05/03 12:04:03;;;;;;;10.03;2.50;;;16.90;45.60;;;;;;5050363;28;20309;-67
2023/05/03 12:06:33;;;;;;;9.77;3.10;;;16.90;45.20;;;;;;5048889;28;20728;-69
2023/05/03 12:09:12;;;;;;;15.40;2.80;;;16.90;45.30;;;;;;5047637;28;20267;-68
2023/05/03 12:11:44;;;;;;;9.13;2.80;;;16.90;45.60;;;;;;4937825;28;3079984;-68
2023/05/03 12:14:11;;;;;;;18.83;2.87;;;16.80;45.30;;;;;;5050933;28;20498;-67
2023/05/03 12:16:53;;;;;;;11.87;3.10;;;16.90;45.20;;;;;;5051145;28;20257;-67
2023/05/03 12:19:31;;;;;;;14.37;3.47;;;16.90;44.60;;;;;;5051896;28;20316;-68
2023/05/03 12:21:58;;;;;;;11.83;3.00;;;16.90;44.60;;;;;;5050412;28;20661;-67
2023/05/03 12:24:25;;;;;;;14.20;3.37;;;16.90;44.90;;;;;;5048545;28;20336;-63
2023/05/03 12:26:53;;;;;;;6.20;2.43;;;16.90;44.30;;;;;;5047625;28;20207;-68
2023/05/03 12:29:20;;;;;;;9.20;2.80;;;16.90;44.30;;;;;;5050571;28;20497;-66
2023/05/03 12:31:48;;;;;;;12.53;3.17;;;16.90;44.20;;;;;;5047265;28;20629;-66
2023/05/03 12:34:15;;;;;;;10.23;2.57;;;16.80;44.60;;;;;;5050809;28;20266;-66
2023/05/03 12:36:42;;;;;;;11.33;2.90;;;16.80;44.50;;;;;;5052054;28;20199;-62
2023/05/03 12:39:10;;;;;;;7.47;3.03;;;16.70;44.60;;;;;;5051237;28;20364;-66
2023/05/03 12:41:37;;;;;;;12.53;2.90;;;16.70;44.90;;;;;;5051148;28;20195;-65
2023/05/03 12:44:05;;;;;;;11.70;2.93;;;16.70;45.10;;;;;;5052657;28;20191;-64
2023/05/03 12:46:32;;;;;;;8.33;2.20;;;16.60;45.10;;;;;;5048307;28;20542;-63
2023/05/03 12:49:00;;;;;;;11.80;3.10;;;16.60;45.10;;;;;;5043113;28;20192;-64
2023/05/03 12:51:27;;;;;;;12.63;3.03;;;16.50;45.50;;;;;;5047348;28;20195;-64
2023/05/03 12:53:54;;;;;;;10.27;2.50;;;16.40;45.80;;;;;;5049245;28;20287;-64
2023/05/03 12:56:22;;;;;;;10.10;2.60;;;16.40;45.30;;;;;;5048559;28;20728;-64